sensor_id;sensor_type;location;lat;lon;timestamp;P1;durP1;ratioP1;P2;durP2;ratioP2
444;SDS011;209;48.774;9.238;2022-07-25T00:02:28;4.07;;;3.73;;
444;SDS011;209;48.774;9.238;2022-07-25T00:05:15;4.37;;;3.27;;
444;SDS011;209;48.774;9.238;2022-07-25T00:08:04;6.20;;;4.53;;
444;SDS011;209;48.774;9.238;2022-07-25T00:10:52;4.43;;;3.73;;
444;SDS011;209;48.774;9.238;2022-07-25T00:13:39;9.07;;;4.77;;
444;SDS011;209;48.774;9.238;2022-07-25T00:16:27;5.17;;;3.57;;
444;SDS011;209;48.774;9.238;2022-07-25T00:19:15;4.20;;;3.83;;
444;SDS011;209;48.774;9.238;2022-07-25T00:22:02;4.40;;;3.77;;
444;SDS011;209;48.774;9.238;2022-07-25T00:24:51;4.17;;;3.43;;
444;SDS011;209;48.774;9.238;2022-07-25T00:27:39;6.53;;;4.00;;
444;SDS011;209;48.774;9.238;2022-07-25T00:30:26;6.17;;;3.23;;
444;SDS011;209;48.774;9.238;2022-07-25T00:33:14;3.97;;;3.53;;
444;SDS011;209;48.774;9.238;2022-07-25T00:36:02;4.87;;;3.60;;
444;SDS011;209;48.774;9.238;2022-07-25T00:38:49;4.07;;;3.17;;
444;SDS011;209;48.774;9.238;2022-07-25T00:41:38;5.07;;;3.87;;
444;SDS011;209;48.774;9.238;2022-07-25T00:44:26;4.83;;;3.63;;
444;SDS011;209;48.774;9.238;2022-07-25T00:47:14;3.73;;;3.57;;
444;SDS011;209;48.774;9.238;2022-07-25T00:50:02;3.97;;;3.60;;
444;SDS011;209;48.774;9.238;2022-07-25T00:52:50;5.43;;;4.20;;
444;SDS011;209;48.774;9.238;2022-07-25T00:55:37;3.87;;;3.67;;
444;SDS011;209;48.774;9.238;2022-07-25T00:58:26;5.73;;;3.70;;
444;SDS011;209;48.774;9.238;2022-07-25T01:01:14;5.30;;;4.37;;
444;SDS011;209;48.774;9.238;2022-07-25T01:04:02;12.13;;;3.50;;
444;SDS011;209;48.774;9.238;2022-07-25T01:06:49;6.90;;;3.60;;
444;SDS011;209;48.774;9.238;2022-07-25T01:09:37;4.20;;;2.83;;
444;SDS011;209;48.774;9.238;2022-07-25T01:12:24;4.53;;;3.40;;
444;SDS011;209;48.774;9.238;2022-07-25T01:15:13;2.90;;;2.77;;
444;SDS011;209;48.774;9.238;2022-07-25T01:18:02;4.37;;;4.00;;
444;SDS011;209;48.774;9.238;2022-07-25T01:20:51;4.57;;;4.30;;
444;SDS011;209;48.774;9.238;2022-07-25T01:23:38;6.40;;;5.13;;
444;SDS011;209;48.774;9.238;2022-07-25T01:26:26;3.97;;;3.83;;
444;SDS011;209;48.774;9.238;2022-07-25T01:29:14;3.50;;;3.20;;
444;SDS011;209;48.774;9.238;2022-07-25T01:32:02;7.07;;;3.50;;
444;SDS011;209;48.774;9.238;2022-07-25T01:34:50;3.70;;;3.10;;
444;SDS011;209;48.774;9.238;2022-07-25T01:37:44;4.50;;;4.20;;
444;SDS011;209;48.774;9.238;2022-07-25T01:40:32;7.63;;;5.90;;
444;SDS011;209;48.774;9.238;2022-07-25T01:43:19;5.60;;;5.07;;
444;SDS011;209;48.774;9.238;2022-07-25T01:46:07;4.27;;;3.20;;
444;SDS011;209;48.774;9.238;2022-07-25T01:48:55;5.03;;;3.67;;
444;SDS011;209;48.774;9.238;2022-07-25T01:51:42;7.37;;;4.23;;
444;SDS011;209;48.774;9.238;2022-07-25T01:54:31;5.90;;;4.70;;
444;SDS011;209;48.774;9.238;2022-07-25T01:57:19;2.97;;;2.57;;
444;SDS011;209;48.774;9.238;2022-07-25T02:00:08;3.30;;;2.77;;
444;SDS011;209;48.774;9.238;2022-07-25T02:02:57;2.93;;;2.73;;
444;SDS011;209;48.774;9.238;2022-07-25T02:06:04;4.40;;;4.13;;
444;SDS011;209;48.774;9.238;2022-07-25T02:08:52;5.77;;;3.70;;
444;SDS011;209;48.774;9.238;2022-07-25T02:11:41;3.70;;;3.00;;
444;SDS011;209;48.774;9.238;2022-07-25T02:14:29;4.30;;;4.00;;
444;SDS011;209;48.774;9.238;2022-07-25T02:17:17;4.10;;;3.60;;
444;SDS011;209;48.774;9.238;2022-07-25T02:20:05;4.00;;;3.67;;
444;SDS011;209;48.774;9.238;2022-07-25T02:22:52;5.00;;;4.53;;
444;SDS011;209;48.774;9.238;2022-07-25T02:25:40;5.13;;;3.87;;
444;SDS011;209;48.774;9.238;2022-07-25T02:28:29;6.67;;;3.90;;
444;SDS011;209;48.774;9.238;2022-07-25T02:42:07;3.13;;;2.93;;
444;SDS011;209;48.774;9.238;2022-07-25T02:44:56;5.37;;;3.77;;
444;SDS011;209;48.774;9.238;2022-07-25T02:47:43;6.87;;;3.60;;
444;SDS011;209;48.774;9.238;2022-07-25T03:52:39;3.10;;;2.93;;
444;SDS011;209;48.774;9.238;2022-07-25T04:06:23;8.73;;;4.60;;
444;SDS011;209;48.774;9.238;2022-07-25T04:09:12;4.03;;;3.00;;
444;SDS011;209;48.774;9.238;2022-07-25T04:12:00;6.43;;;4.33;;
444;SDS011;209;48.774;9.238;2022-07-25T04:14:48;4.43;;;3.80;;
444;SDS011;209;48.774;9.238;2022-07-25T04:17:35;5.53;;;3.40;;
444;SDS011;209;48.774;9.238;2022-07-25T04:20:23;5.37;;;3.83;;
444;SDS011;209;48.774;9.238;2022-07-25T04:23:12;7.37;;;4.97;;
444;SDS011;209;48.774;9.238;2022-07-25T04:26:01;9.43;;;5.17;;
444;SDS011;209;48.774;9.238;2022-07-25T04:28:49;4.10;;;3.90;;
444;SDS011;209;48.774;9.238;2022-07-25T04:31:37;6.03;;;3.60;;
444;SDS011;209;48.774;9.238;2022-07-25T04:34:28;5.33;;;3.37;;
444;SDS011;209;48.774;9.238;2022-07-25T04:37:25;3.43;;;3.17;;
444;SDS011;209;48.774;9.238;2022-07-25T04:40:15;3.83;;;3.07;;
444;SDS011;209;48.774;9.238;2022-07-25T04:43:04;3.27;;;2.93;;
444;SDS011;209;48.774;9.238;2022-07-25T04:45:53;4.77;;;3.87;;
444;SDS011;209;48.774;9.238;2022-07-25T04:48:40;6.07;;;3.23;;
444;SDS011;209;48.774;9.238;2022-07-25T04:51:28;4.37;;;4.07;;
444;SDS011;209;48.774;9.238;2022-07-25T04:54:19;4.87;;;4.40;;
444;SDS011;209;48.774;9.238;2022-07-25T04:57:27;6.17;;;4.37;;
444;SDS011;209;48.774;9.238;2022-07-25T05:00:17;4.83;;;4.03;;
444;SDS011;209;48.774;9.238;2022-07-25T05:03:05;5.40;;;4.00;;
444;SDS011;209;48.774;9.238;2022-07-25T05:05:54;3.83;;;3.67;;
444;SDS011;209;48.774;9.238;2022-07-25T05:08:41;4.30;;;3.73;;
444;SDS011;209;48.774;9.238;2022-07-25T05:11:29;5.50;;;3.97;;
444;SDS011;209;48.774;9.238;2022-07-25T05:14:17;5.30;;;4.47;;
444;SDS011;209;48.774;9.238;2022-07-25T05:17:06;4.17;;;3.10;;
444;SDS011;209;48.774;9.238;2022-07-25T05:19:53;7.80;;;4.60;;
444;SDS011;209;48.774;9.238;2022-07-25T05:22:41;3.20;;;2.90;;
444;SDS011;209;48.774;9.238;2022-07-25T05:25:29;5.93;;;4.10;;
444;SDS011;209;48.774;9.238;2022-07-25T05:28:18;7.20;;;4.20;;
444;SDS011;209;48.774;9.238;2022-07-25T05:31:08;5.40;;;3.80;;
444;SDS011;209;48.774;9.238;2022-07-25T05:33:57;4.87;;;3.67;;
444;SDS011;209;48.774;9.238;2022-07-25T05:36:45;3.40;;;2.90;;
444;SDS011;209;48.774;9.238;2022-07-25T05:39:40;6.33;;;4.10;;
444;SDS011;209;48.774;9.238;2022-07-25T05:42:28;7.20;;;4.23;;
444;SDS011;209;48.774;9.238;2022-07-25T05:45:17;7.20;;;4.30;;
444;SDS011;209;48.774;9.238;2022-07-25T05:48:08;4.63;;;4.10;;
444;SDS011;209;48.774;9.238;2022-07-25T05:51:00;5.80;;;4.47;;
444;SDS011;209;48.774;9.238;2022-07-25T05:53:48;7.60;;;4.97;;
444;SDS011;209;48.774;9.238;2022-07-25T05:56:35;5.90;;;4.73;;
444;SDS011;209;48.774;9.238;2022-07-25T05:59:23;9.93;;;4.97;;
444;SDS011;209;48.774;9.238;2022-07-25T06:02:13;7.63;;;4.67;;
444;SDS011;209;48.774;9.238;2022-07-25T06:05:04;6.57;;;4.50;;
444;SDS011;209;48.774;9.238;2022-07-25T06:07:55;4.10;;;3.90;;
444;SDS011;209;48.774;9.238;2022-07-25T06:10:43;4.93;;;3.57;;
444;SDS011;209;48.774;9.238;2022-07-25T06:13:31;6.17;;;4.50;;
444;SDS011;209;48.774;9.238;2022-07-25T06:16:19;3.97;;;3.77;;
444;SDS011;209;48.774;9.238;2022-07-25T06:19:10;7.40;;;3.70;;
444;SDS011;209;48.774;9.238;2022-07-25T06:22:00;6.10;;;4.07;;
444;SDS011;209;48.774;9.238;2022-07-25T06:24:51;4.70;;;3.50;;
444;SDS011;209;48.774;9.238;2022-07-25T06:27:41;5.40;;;4.03;;
444;SDS011;209;48.774;9.238;2022-07-25T06:30:32;5.50;;;3.20;;
444;SDS011;209;48.774;9.238;2022-07-25T06:33:19;4.30;;;3.37;;
444;SDS011;209;48.774;9.238;2022-07-25T06:36:07;4.30;;;3.70;;
444;SDS011;209;48.774;9.238;2022-07-25T06:38:58;5.90;;;4.23;;
444;SDS011;209;48.774;9.238;2022-07-25T06:41:47;7.00;;;3.90;;
444;SDS011;209;48.774;9.238;2022-07-25T06:44:37;5.37;;;4.00;;
444;SDS011;209;48.774;9.238;2022-07-25T06:47:25;7.23;;;4.10;;
444;SDS011;209;48.774;9.238;2022-07-25T06:50:16;6.40;;;3.37;;
444;SDS011;209;48.774;9.238;2022-07-25T06:53:04;4.57;;;4.03;;
444;SDS011;209;48.774;9.238;2022-07-25T06:55:54;3.90;;;3.80;;
444;SDS011;209;48.774;9.238;2022-07-25T06:58:44;4.90;;;3.63;;
444;SDS011;209;48.774;9.238;2022-07-25T07:01:31;4.50;;;3.53;;
444;SDS011;209;48.774;9.238;2022-07-25T07:04:19;8.17;;;4.73;;
444;SDS011;209;48.774;9.238;2022-07-25T07:07:08;5.77;;;4.30;;
444;SDS011;209;48.774;9.238;2022-07-25T07:09:56;6.33;;;5.10;;
444;SDS011;209;48.774;9.238;2022-07-25T07:12:44;6.60;;;4.53;;
444;SDS011;209;48.774;9.238;2022-07-25T07:15:35;5.60;;;4.40;;
444;SDS011;209;48.774;9.238;2022-07-25T07:18:22;7.57;;;5.43;;
444;SDS011;209;48.774;9.238;2022-07-25T07:21:10;4.67;;;4.37;;
444;SDS011;209;48.774;9.238;2022-07-25T07:24:01;4.77;;;3.40;;
444;SDS011;209;48.774;9.238;2022-07-25T07:26:48;4.47;;;3.97;;
444;SDS011;209;48.774;9.238;2022-07-25T07:29:36;5.13;;;3.77;;
444;SDS011;209;48.774;9.238;2022-07-25T07:32:31;5.70;;;4.80;;
444;SDS011;209;48.774;9.238;2022-07-25T07:56:55;3.70;;;3.50;;
444;SDS011;209;48.774;9.238;2022-07-25T07:59:43;4.40;;;3.97;;
444;SDS011;209;48.774;9.238;2022-07-25T08:02:31;3.60;;;3.43;;
444;SDS011;209;48.774;9.238;2022-07-25T08:05:19;5.90;;;4.80;;
444;SDS011;209;48.774;9.238;2022-07-25T08:08:13;5.87;;;5.57;;
444;SDS011;209;48.774;9.238;2022-07-25T08:11:02;3.83;;;3.57;;
444;SDS011;209;48.774;9.238;2022-07-25T08:13:51;6.33;;;5.47;;
444;SDS011;209;48.774;9.238;2022-07-25T08:16:38;4.20;;;3.37;;
444;SDS011;209;48.774;9.238;2022-07-25T08:19:26;4.00;;;3.53;;
444;SDS011;209;48.774;9.238;2022-07-25T08:22:14;4.87;;;3.80;;
444;SDS011;209;48.774;9.238;2022-07-25T08:25:02;4.40;;;4.10;;
444;SDS011;209;48.774;9.238;2022-07-25T08:27:50;4.67;;;3.60;;
444;SDS011;209;48.774;9.238;2022-07-25T08:30:39;5.03;;;3.97;;
444;SDS011;209;48.774;9.238;2022-07-25T08:33:27;6.63;;;4.00;;
444;SDS011;209;48.774;9.238;2022-07-25T08:36:15;4.50;;;3.33;;
444;SDS011;209;48.774;9.238;2022-07-25T08:39:04;4.97;;;4.47;;
444;SDS011;209;48.774;9.238;2022-07-25T08:41:51;5.23;;;4.67;;
444;SDS011;209;48.774;9.238;2022-07-25T08:44:42;5.40;;;4.87;;
444;SDS011;209;48.774;9.238;2022-07-25T08:47:32;4.23;;;3.80;;
444;SDS011;209;48.774;9.238;2022-07-25T08:50:22;5.97;;;4.20;;
444;SDS011;209;48.774;9.238;2022-07-25T08:53:09;4.23;;;3.60;;
444;SDS011;209;48.774;9.238;2022-07-25T08:55:58;3.90;;;3.47;;
444;SDS011;209;48.774;9.238;2022-07-25T08:58:45;5.37;;;4.73;;
444;SDS011;209;48.774;9.238;2022-07-25T09:01:33;3.97;;;3.80;;
444;SDS011;209;48.774;9.238;2022-07-25T09:04:23;6.03;;;3.20;;
444;SDS011;209;48.774;9.238;2022-07-25T09:07:11;3.80;;;3.17;;
444;SDS011;209;48.774;9.238;2022-07-25T09:09:58;3.90;;;3.70;;
444;SDS011;209;48.774;9.238;2022-07-25T09:12:59;3.70;;;3.33;;
444;SDS011;209;48.774;9.238;2022-07-25T09:15:48;5.47;;;4.63;;
444;SDS011;209;48.774;9.238;2022-07-25T09:18:36;4.47;;;4.17;;
444;SDS011;209;48.774;9.238;2022-07-25T09:21:29;5.70;;;4.37;;
444;SDS011;209;48.774;9.238;2022-07-25T09:24:17;4.33;;;3.33;;
444;SDS011;209;48.774;9.238;2022-07-25T09:27:08;5.43;;;4.17;;
444;SDS011;209;48.774;9.238;2022-07-25T09:29:55;4.23;;;3.97;;
444;SDS011;209;48.774;9.238;2022-07-25T09:32:44;4.07;;;3.80;;
444;SDS011;209;48.774;9.238;2022-07-25T09:35:33;5.43;;;4.30;;
444;SDS011;209;48.774;9.238;2022-07-25T09:38:24;4.23;;;2.90;;
444;SDS011;209;48.774;9.238;2022-07-25T09:41:12;4.63;;;3.63;;
444;SDS011;209;48.774;9.238;2022-07-25T09:44:00;4.63;;;3.17;;
444;SDS011;209;48.774;9.238;2022-07-25T09:46:47;4.30;;;2.87;;
444;SDS011;209;48.774;9.238;2022-07-25T09:49:39;3.43;;;2.80;;
444;SDS011;209;48.774;9.238;2022-07-25T09:52:27;5.03;;;3.43;;
444;SDS011;209;48.774;9.238;2022-07-25T09:55:16;4.30;;;3.07;;
444;SDS011;209;48.774;9.238;2022-07-25T09:58:04;6.10;;;4.70;;
444;SDS011;209;48.774;9.238;2022-07-25T10:00:53;5.50;;;4.00;;
444;SDS011;209;48.774;9.238;2022-07-25T10:03:44;3.30;;;3.00;;
444;SDS011;209;48.774;9.238;2022-07-25T10:06:36;3.83;;;3.50;;
444;SDS011;209;48.774;9.238;2022-07-25T10:09:25;3.73;;;3.03;;
444;SDS011;209;48.774;9.238;2022-07-25T10:12:19;3.50;;;2.93;;
444;SDS011;209;48.774;9.238;2022-07-25T10:15:07;4.43;;;3.40;;
444;SDS011;209;48.774;9.238;2022-07-25T10:18:02;4.10;;;3.30;;
444;SDS011;209;48.774;9.238;2022-07-25T10:20:53;4.77;;;3.73;;
444;SDS011;209;48.774;9.238;2022-07-25T10:23:41;3.63;;;3.30;;
444;SDS011;209;48.774;9.238;2022-07-25T10:26:31;3.80;;;3.27;;
444;SDS011;209;48.774;9.238;2022-07-25T10:29:21;4.10;;;3.90;;
444;SDS011;209;48.774;9.238;2022-07-25T10:32:09;9.67;;;3.83;;
444;SDS011;209;48.774;9.238;2022-07-25T10:34:57;4.43;;;3.43;;
444;SDS011;209;48.774;9.238;2022-07-25T10:37:45;4.30;;;4.00;;
444;SDS011;209;48.774;9.238;2022-07-25T10:40:33;5.27;;;3.23;;
444;SDS011;209;48.774;9.238;2022-07-25T10:43:21;4.43;;;4.17;;
444;SDS011;209;48.774;9.238;2022-07-25T10:46:13;3.83;;;3.67;;
444;SDS011;209;48.774;9.238;2022-07-25T10:49:02;4.50;;;3.93;;
444;SDS011;209;48.774;9.238;2022-07-25T10:51:51;5.30;;;4.00;;
444;SDS011;209;48.774;9.238;2022-07-25T10:54:51;4.27;;;3.00;;
444;SDS011;209;48.774;9.238;2022-07-25T10:57:39;3.73;;;3.50;;
444;SDS011;209;48.774;9.238;2022-07-25T11:00:27;4.00;;;3.57;;
444;SDS011;209;48.774;9.238;2022-07-25T11:03:19;5.20;;;4.20;;
444;SDS011;209;48.774;9.238;2022-07-25T11:06:07;4.10;;;3.10;;
444;SDS011;209;48.774;9.238;2022-07-25T11:08:54;4.20;;;3.10;;
444;SDS011;209;48.774;9.238;2022-07-25T11:11:45;3.93;;;3.70;;
444;SDS011;209;48.774;9.238;2022-07-25T11:14:34;3.60;;;3.30;;
444;SDS011;209;48.774;9.238;2022-07-25T11:17:23;4.40;;;4.10;;
444;SDS011;209;48.774;9.238;2022-07-25T11:20:15;5.47;;;3.93;;
444;SDS011;209;48.774;9.238;2022-07-25T11:23:03;4.40;;;3.43;;
444;SDS011;209;48.774;9.238;2022-07-25T11:25:51;4.13;;;3.43;;
444;SDS011;209;48.774;9.238;2022-07-25T11:28:40;5.27;;;4.97;;
444;SDS011;209;48.774;9.238;2022-07-25T11:31:28;3.90;;;3.17;;
444;SDS011;209;48.774;9.238;2022-07-25T11:34:16;5.93;;;4.07;;
444;SDS011;209;48.774;9.238;2022-07-25T11:37:06;5.93;;;4.10;;
444;SDS011;209;48.774;9.238;2022-07-25T11:39:54;4.50;;;3.37;;
444;SDS011;209;48.774;9.238;2022-07-25T11:42:42;5.60;;;4.27;;
444;SDS011;209;48.774;9.238;2022-07-25T11:45:32;5.53;;;3.17;;
444;SDS011;209;48.774;9.238;2022-07-25T11:48:21;4.20;;;2.73;;
444;SDS011;209;48.774;9.238;2022-07-25T11:51:16;3.77;;;3.63;;
444;SDS011;209;48.774;9.238;2022-07-25T11:54:08;4.10;;;3.70;;
444;SDS011;209;48.774;9.238;2022-07-25T11:56:57;3.93;;;3.17;;
444;SDS011;209;48.774;9.238;2022-07-25T11:59:45;4.73;;;3.07;;
444;SDS011;209;48.774;9.238;2022-07-25T12:02:33;4.97;;;3.63;;
444;SDS011;209;48.774;9.238;2022-07-25T12:05:30;5.17;;;3.40;;
444;SDS011;209;48.774;9.238;2022-07-25T12:08:20;4.87;;;3.73;;
444;SDS011;209;48.774;9.238;2022-07-25T12:11:19;3.37;;;2.50;;
444;SDS011;209;48.774;9.238;2022-07-25T12:14:08;3.57;;;3.17;;
444;SDS011;209;48.774;9.238;2022-07-25T12:16:55;5.20;;;3.70;;
444;SDS011;209;48.774;9.238;2022-07-25T12:19:43;4.53;;;2.93;;
444;SDS011;209;48.774;9.238;2022-07-25T12:22:33;3.10;;;2.60;;
444;SDS011;209;48.774;9.238;2022-07-25T12:25:23;3.07;;;2.87;;
444;SDS011;209;48.774;9.238;2022-07-25T12:28:12;2.93;;;2.53;;
444;SDS011;209;48.774;9.238;2022-07-25T12:31:01;4.13;;;2.30;;
444;SDS011;209;48.774;9.238;2022-07-25T12:33:51;2.60;;;1.83;;
444;SDS011;209;48.774;9.238;2022-07-25T12:36:39;3.67;;;3.10;;
444;SDS011;209;48.774;9.238;2022-07-25T12:39:29;3.83;;;3.07;;
444;SDS011;209;48.774;9.238;2022-07-25T12:42:18;2.80;;;2.17;;
444;SDS011;209;48.774;9.238;2022-07-25T12:45:07;3.60;;;2.27;;
444;SDS011;209;48.774;9.238;2022-07-25T12:47:55;4.73;;;3.30;;
444;SDS011;209;48.774;9.238;2022-07-25T12:50:43;5.50;;;2.87;;
444;SDS011;209;48.774;9.238;2022-07-25T12:53:31;3.00;;;2.87;;
444;SDS011;209;48.774;9.238;2022-07-25T12:56:19;9.23;;;3.03;;
444;SDS011;209;48.774;9.238;2022-07-25T12:59:06;2.87;;;2.70;;
444;SDS011;209;48.774;9.238;2022-07-25T13:01:55;4.40;;;2.63;;
444;SDS011;209;48.774;9.238;2022-07-25T13:04:46;3.63;;;3.03;;
444;SDS011;209;48.774;9.238;2022-07-25T13:07:34;2.87;;;2.73;;
444;SDS011;209;48.774;9.238;2022-07-25T13:10:22;5.20;;;2.83;;
444;SDS011;209;48.774;9.238;2022-07-25T13:13:09;2.70;;;2.30;;
444;SDS011;209;48.774;9.238;2022-07-25T13:16:02;4.63;;;3.33;;
444;SDS011;209;48.774;9.238;2022-07-25T13:18:51;3.90;;;2.60;;
444;SDS011;209;48.774;9.238;2022-07-25T13:21:39;3.87;;;3.67;;
444;SDS011;209;48.774;9.238;2022-07-25T13:24:26;4.93;;;2.60;;
444;SDS011;209;48.774;9.238;2022-07-25T13:27:16;2.40;;;2.17;;
444;SDS011;209;48.774;9.238;2022-07-25T13:30:05;3.83;;;3.20;;
444;SDS011;209;48.774;9.238;2022-07-25T13:32:56;3.27;;;2.50;;
444;SDS011;209;48.774;9.238;2022-07-25T13:35:47;5.70;;;4.03;;
444;SDS011;209;48.774;9.238;2022-07-25T13:38:35;3.77;;;2.70;;
444;SDS011;209;48.774;9.238;2022-07-25T13:41:25;5.20;;;3.90;;
444;SDS011;209;48.774;9.238;2022-07-25T13:44:13;4.67;;;3.67;;
444;SDS011;209;48.774;9.238;2022-07-25T13:47:06;4.27;;;3.17;;
444;SDS011;209;48.774;9.238;2022-07-25T13:49:54;3.03;;;2.37;;
444;SDS011;209;48.774;9.238;2022-07-25T13:52:43;3.63;;;3.37;;
444;SDS011;209;48.774;9.238;2022-07-25T13:55:32;5.50;;;4.60;;
444;SDS011;209;48.774;9.238;2022-07-25T13:58:20;4.30;;;2.80;;
444;SDS011;209;48.774;9.238;2022-07-25T14:01:08;3.47;;;2.60;;
444;SDS011;209;48.774;9.238;2022-07-25T14:03:57;4.13;;;3.30;;
444;SDS011;209;48.774;9.238;2022-07-25T14:06:49;3.03;;;2.73;;
444;SDS011;209;48.774;9.238;2022-07-25T14:09:39;3.77;;;3.10;;
444;SDS011;209;48.774;9.238;2022-07-25T14:12:29;3.93;;;3.00;;
444;SDS011;209;48.774;9.238;2022-07-25T14:15:17;7.90;;;3.57;;
444;SDS011;209;48.774;9.238;2022-07-25T14:18:05;4.00;;;2.50;;
444;SDS011;209;48.774;9.238;2022-07-25T14:20:54;2.43;;;2.30;;
444;SDS011;209;48.774;9.238;2022-07-25T14:23:42;2.80;;;2.60;;
444;SDS011;209;48.774;9.238;2022-07-25T14:26:31;3.50;;;3.10;;
444;SDS011;209;48.774;9.238;2022-07-25T14:29:20;2.83;;;2.67;;
444;SDS011;209;48.774;9.238;2022-07-25T14:32:09;5.03;;;3.73;;
444;SDS011;209;48.774;9.238;2022-07-25T14:35:02;4.30;;;3.53;;
444;SDS011;209;48.774;9.238;2022-07-25T14:37:50;3.97;;;3.37;;
444;SDS011;209;48.774;9.238;2022-07-25T14:40:38;3.60;;;3.40;;
444;SDS011;209;48.774;9.238;2022-07-25T14:43:27;3.07;;;2.83;;
444;SDS011;209;48.774;9.238;2022-07-25T14:46:17;3.57;;;2.70;;
444;SDS011;209;48.774;9.238;2022-07-25T14:49:04;4.03;;;3.00;;
444;SDS011;209;48.774;9.238;2022-07-25T14:51:53;4.10;;;3.27;;
444;SDS011;209;48.774;9.238;2022-07-25T14:54:41;3.40;;;2.73;;
444;SDS011;209;48.774;9.238;2022-07-25T14:57:28;3.63;;;3.40;;
444;SDS011;209;48.774;9.238;2022-07-25T15:00:17;3.50;;;2.80;;
444;SDS011;209;48.774;9.238;2022-07-25T15:03:05;4.47;;;3.10;;
444;SDS011;209;48.774;9.238;2022-07-25T15:05:54;6.20;;;3.53;;
444;SDS011;209;48.774;9.238;2022-07-25T15:08:41;6.10;;;2.70;;
444;SDS011;209;48.774;9.238;2022-07-25T15:11:32;4.90;;;2.73;;
444;SDS011;209;48.774;9.238;2022-07-25T15:14:20;3.20;;;3.00;;
444;SDS011;209;48.774;9.238;2022-07-25T15:17:09;3.60;;;3.10;;
444;SDS011;209;48.774;9.238;2022-07-25T15:19:57;3.60;;;2.67;;
444;SDS011;209;48.774;9.238;2022-07-25T15:22:45;3.87;;;3.40;;
444;SDS011;209;48.774;9.238;2022-07-25T15:25:32;5.37;;;2.90;;
444;SDS011;209;48.774;9.238;2022-07-25T15:28:20;3.97;;;3.77;;
444;SDS011;209;48.774;9.238;2022-07-25T15:31:08;2.90;;;2.33;;
444;SDS011;209;48.774;9.238;2022-07-25T15:33:57;4.07;;;3.13;;
444;SDS011;209;48.774;9.238;2022-07-25T15:36:45;4.80;;;3.20;;
444;SDS011;209;48.774;9.238;2022-07-25T15:39:33;3.97;;;3.40;;
444;SDS011;209;48.774;9.238;2022-07-25T15:42:20;2.77;;;2.60;;
444;SDS011;209;48.774;9.238;2022-07-25T15:45:08;4.13;;;3.73;;
444;SDS011;209;48.774;9.238;2022-07-25T15:47:56;3.03;;;2.87;;
444;SDS011;209;48.774;9.238;2022-07-25T15:50:47;4.60;;;3.17;;
444;SDS011;209;48.774;9.238;2022-07-25T15:53:36;4.47;;;3.60;;
444;SDS011;209;48.774;9.238;2022-07-25T15:56:24;3.80;;;2.50;;
444;SDS011;209;48.774;9.238;2022-07-25T15:59:11;3.60;;;3.40;;
444;SDS011;209;48.774;9.238;2022-07-25T16:01:59;3.00;;;2.80;;
444;SDS011;209;48.774;9.238;2022-07-25T16:04:47;4.00;;;2.80;;
444;SDS011;209;48.774;9.238;2022-07-25T16:07:35;3.33;;;2.40;;
444;SDS011;209;48.774;9.238;2022-07-25T16:10:23;3.37;;;3.17;;
444;SDS011;209;48.774;9.238;2022-07-25T16:13:10;5.63;;;3.77;;
444;SDS011;209;48.774;9.238;2022-07-25T16:15:58;2.73;;;2.53;;
444;SDS011;209;48.774;9.238;2022-07-25T16:18:48;2.80;;;2.67;;
444;SDS011;209;48.774;9.238;2022-07-25T16:21:38;4.57;;;2.70;;
444;SDS011;209;48.774;9.238;2022-07-25T16:24:27;3.20;;;2.40;;
444;SDS011;209;48.774;9.238;2022-07-25T16:27:14;5.90;;;3.87;;
444;SDS011;209;48.774;9.238;2022-07-25T16:30:02;2.90;;;2.70;;
444;SDS011;209;48.774;9.238;2022-07-25T16:32:50;3.87;;;2.83;;
444;SDS011;209;48.774;9.238;2022-07-25T16:35:38;4.60;;;3.40;;
444;SDS011;209;48.774;9.238;2022-07-25T16:38:26;2.70;;;2.20;;
444;SDS011;209;48.774;9.238;2022-07-25T16:41:15;3.53;;;2.73;;
444;SDS011;209;48.774;9.238;2022-07-25T16:44:03;2.63;;;2.30;;
444;SDS011;209;48.774;9.238;2022-07-25T16:46:51;5.30;;;2.83;;
444;SDS011;209;48.774;9.238;2022-07-25T16:49:39;5.00;;;4.00;;
444;SDS011;209;48.774;9.238;2022-07-25T16:52:28;4.10;;;2.00;;
444;SDS011;209;48.774;9.238;2022-07-25T16:55:18;2.57;;;2.30;;
444;SDS011;209;48.774;9.238;2022-07-25T16:58:07;4.97;;;3.27;;
444;SDS011;209;48.774;9.238;2022-07-25T17:00:54;2.87;;;1.83;;
444;SDS011;209;48.774;9.238;2022-07-25T17:03:42;3.97;;;2.43;;
444;SDS011;209;48.774;9.238;2022-07-25T17:06:31;4.70;;;3.13;;
444;SDS011;209;48.774;9.238;2022-07-25T17:09:19;4.23;;;2.97;;
444;SDS011;209;48.774;9.238;2022-07-25T17:12:07;3.23;;;2.73;;
444;SDS011;209;48.774;9.238;2022-07-25T17:14:56;3.17;;;2.67;;
444;SDS011;209;48.774;9.238;2022-07-25T17:17:44;3.23;;;2.33;;
444;SDS011;209;48.774;9.238;2022-07-25T17:20:32;4.10;;;3.37;;
444;SDS011;209;48.774;9.238;2022-07-25T17:23:20;4.67;;;2.30;;
444;SDS011;209;48.774;9.238;2022-07-25T17:26:09;2.50;;;2.37;;
444;SDS011;209;48.774;9.238;2022-07-25T17:28:57;4.00;;;2.70;;
444;SDS011;209;48.774;9.238;2022-07-25T17:31:47;2.67;;;1.93;;
444;SDS011;209;48.774;9.238;2022-07-25T17:34:34;2.90;;;2.77;;
444;SDS011;209;48.774;9.238;2022-07-25T17:37:22;3.30;;;2.27;;
444;SDS011;209;48.774;9.238;2022-07-25T17:40:11;4.20;;;2.57;;
444;SDS011;209;48.774;9.238;2022-07-25T17:42:59;3.80;;;2.97;;
444;SDS011;209;48.774;9.238;2022-07-25T17:45:47;4.23;;;2.60;;
444;SDS011;209;48.774;9.238;2022-07-25T17:48:35;2.93;;;1.90;;
444;SDS011;209;48.774;9.238;2022-07-25T17:51:23;2.47;;;1.87;;
444;SDS011;209;48.774;9.238;2022-07-25T17:54:11;4.43;;;2.70;;
444;SDS011;209;48.774;9.238;2022-07-25T17:56:58;3.90;;;3.27;;
444;SDS011;209;48.774;9.238;2022-07-25T17:59:46;3.30;;;2.17;;
444;SDS011;209;48.774;9.238;2022-07-25T18:02:34;3.67;;;2.50;;
444;SDS011;209;48.774;9.238;2022-07-25T18:05:23;3.53;;;2.30;;
444;SDS011;209;48.774;9.238;2022-07-25T18:08:11;3.20;;;1.67;;
444;SDS011;209;48.774;9.238;2022-07-25T18:10:58;3.67;;;2.70;;
444;SDS011;209;48.774;9.238;2022-07-25T18:13:47;2.53;;;2.07;;
444;SDS011;209;48.774;9.238;2022-07-25T18:16:35;2.43;;;1.90;;
444;SDS011;209;48.774;9.238;2022-07-25T18:19:26;3.20;;;2.90;;
444;SDS011;209;48.774;9.238;2022-07-25T18:22:15;3.93;;;2.57;;
444;SDS011;209;48.774;9.238;2022-07-25T18:25:03;3.30;;;2.00;;
444;SDS011;209;48.774;9.238;2022-07-25T18:27:58;2.73;;;2.00;;
444;SDS011;209;48.774;9.238;2022-07-25T18:30:47;2.70;;;2.50;;
444;SDS011;209;48.774;9.238;2022-07-25T18:33:35;3.07;;;2.87;;
444;SDS011;209;48.774;9.238;2022-07-25T18:36:23;3.00;;;2.27;;
444;SDS011;209;48.774;9.238;2022-07-25T18:39:12;3.43;;;2.83;;
444;SDS011;209;48.774;9.238;2022-07-25T18:42:00;4.50;;;2.77;;
444;SDS011;209;48.774;9.238;2022-07-25T18:44:47;3.03;;;2.27;;
444;SDS011;209;48.774;9.238;2022-07-25T18:47:35;4.47;;;2.60;;
444;SDS011;209;48.774;9.238;2022-07-25T18:50:23;3.30;;;2.03;;
444;SDS011;209;48.774;9.238;2022-07-25T18:53:11;4.60;;;1.90;;
444;SDS011;209;48.774;9.238;2022-07-25T18:56:02;6.10;;;3.07;;
444;SDS011;209;48.774;9.238;2022-07-25T18:58:50;3.63;;;2.00;;
444;SDS011;209;48.774;9.238;2022-07-25T19:01:37;1.80;;;1.70;;
444;SDS011;209;48.774;9.238;2022-07-25T19:04:25;5.30;;;1.70;;
444;SDS011;209;48.774;9.238;2022-07-25T19:07:12;2.47;;;1.70;;
444;SDS011;209;48.774;9.238;2022-07-25T19:10:00;1.70;;;1.70;;
444;SDS011;209;48.774;9.238;2022-07-25T19:12:50;4.07;;;1.90;;
444;SDS011;209;48.774;9.238;2022-07-25T19:15:38;3.00;;;1.50;;
444;SDS011;209;48.774;9.238;2022-07-25T19:18:28;2.57;;;1.87;;
444;SDS011;209;48.774;9.238;2022-07-25T19:21:17;3.00;;;1.87;;
444;SDS011;209;48.774;9.238;2022-07-25T19:24:06;3.03;;;1.87;;
444;SDS011;209;48.774;9.238;2022-07-25T19:26:56;4.50;;;1.80;;
444;SDS011;209;48.774;9.238;2022-07-25T19:43:09;1.40;;;0.80;;
444;SDS011;209;48.774;9.238;2022-07-25T19:45:56;1.23;;;0.80;;
444;SDS011;209;48.774;9.238;2022-07-25T19:48:44;2.03;;;1.40;;
444;SDS011;209;48.774;9.238;2022-07-25T19:51:31;1.83;;;1.20;;
444;SDS011;209;48.774;9.238;2022-07-25T19:54:19;2.23;;;1.43;;
444;SDS011;209;48.774;9.238;2022-07-25T19:57:07;2.10;;;1.40;;
444;SDS011;209;48.774;9.238;2022-07-25T19:59:56;2.00;;;1.50;;
444;SDS011;209;48.774;9.238;2022-07-25T20:02:44;1.80;;;1.37;;